Time;durP1;ratioP1;P1;durP2;ratioP2;P2;SDS_P1;SDS_P2;PMS_P1;PMS_P2;Temp;Humidity;BMP_temperature;BMP_pressure;BME280_temperature;BME280_humidity;BME280_pressure;Samples;Min_cycle;Max_cycle;Signal;HPM_P1;HPM_P2
2021/05/26 04:01:59;;;;;;;2.13;1.10;;;11.40;99.90;;;;;;5313781;23;20509;-64
2021/05/26 04:04:26;;;;;;;1.83;1.10;;;11.40;99.90;;;;;;5035600;28;20504;-65
2021/05/26 04:06:52;;;;;;;2.67;1.40;;;11.50;99.90;;;;;;5035888;28;20448;-64
2021/05/26 04:09:20;;;;;;;1.13;1.13;;;11.50;99.90;;;;;;5035899;28;20459;-63
2021/05/26 04:11:46;;;;;;;3.60;1.43;;;11.60;99.90;;;;;;5035639;28;20479;-63
2021/05/26 04:14:12;;;;;;;1.87;1.20;;;11.60;99.90;;;;;;5036103;28;20455;-64
2021/05/26 04:16:38;;;;;;;3.93;2.10;;;11.60;99.90;;;;;;5036035;28;20448;-63
2021/05/26 04:19:06;;;;;;;3.57;1.30;;;11.50;99.90;;;;;;5035659;28;20465;-64
2021/05/26 04:21:32;;;;;;;1.43;1.30;;;11.60;99.90;;;;;;5035837;28;20476;-64
2021/05/26 04:23:59;;;;;;;4.63;1.70;;;11.60;99.90;;;;;;5035737;28;20452;-64
2021/05/26 04:26:25;;;;;;;2.27;1.20;;;11.50;99.90;;;;;;5035921;28;20444;-63
2021/05/26 04:28:52;;;;;;;1.20;1.10;;;11.50;99.90;;;;;;5035754;28;20452;-64
2021/05/26 04:31:18;;;;;;;2.13;1.00;;;11.60;99.90;;;;;;5035747;28;20511;-63
2021/05/26 04:33:44;;;;;;;2.80;1.20;;;11.60;99.90;;;;;;5049454;28;20455;-64
2021/05/26 04:36:11;;;;;;;3.60;1.20;;;11.60;99.90;;;;;;5047683;28;20496;-63
2021/05/26 04:38:37;;;;;;;3.17;1.40;;;11.70;99.90;;;;;;5035542;28;20476;-63
2021/05/26 04:41:05;;;;;;;1.43;1.33;;;11.70;99.90;;;;;;5035717;28;20472;-64
2021/05/26 04:43:32;;;;;;;1.60;1.17;;;11.80;99.90;;;;;;5035003;28;20440;-64
2021/05/26 04:46:00;;;;;;;2.00;1.20;;;11.80;99.90;;;;;;5035646;28;20804;-63
2021/05/26 04:48:26;;;;;;;4.20;1.93;;;11.70;99.90;;;;;;5035333;28;20433;-63
2021/05/26 04:50:52;;;;;;;1.27;1.17;;;11.70;99.90;;;;;;5035206;28;20475;-63
2021/05/26 04:53:19;;;;;;;3.90;1.67;;;11.70;99.90;;;;;;5034856;28;20947;-64
2021/05/26 04:55:45;;;;;;;5.23;1.63;;;11.70;99.90;;;;;;5035236;28;20479;-64
2021/05/26 04:58:12;;;;;;;1.60;1.07;;;11.70;99.90;;;;;;5035225;28;20479;-64
2021/05/26 05:00:38;;;;;;;2.30;1.23;;;11.70;99.90;;;;;;5035065;28;20488;-64
2021/05/26 05:03:05;;;;;;;1.93;1.33;;;11.70;99.90;;;;;;5035206;28;20800;-66
2021/05/26 05:05:32;;;;;;;2.03;1.10;;;11.80;99.90;;;;;;5034778;28;20946;-64
2021/05/26 05:07:59;;;;;;;1.37;1.27;;;11.70;99.90;;;;;;5034221;28;20459;-63
2021/05/26 05:10:26;;;;;;;3.43;1.63;;;11.70;99.90;;;;;;5034657;28;20463;-64
2021/05/26 05:12:52;;;;;;;1.17;1.07;;;11.70;99.90;;;;;;5035195;28;20448;-65
2021/05/26 05:15:18;;;;;;;1.90;1.23;;;11.80;99.90;;;;;;5034955;28;20452;-65
2021/05/26 05:17:46;;;;;;;1.60;1.47;;;11.70;99.90;;;;;;5034447;28;20476;-64
2021/05/26 05:20:14;;;;;;;4.17;1.40;;;11.70;99.90;;;;;;5034766;28;20448;-63
2021/05/26 05:22:41;;;;;;;2.53;1.27;;;11.60;99.90;;;;;;5034433;28;20938;-64
2021/05/26 05:25:09;;;;;;;2.90;1.20;;;11.40;99.90;;;;;;5034577;28;20456;-63
2021/05/26 05:27:37;;;;;;;2.73;1.17;;;11.30;99.90;;;;;;5034852;28;20451;-64
2021/05/26 05:30:04;;;;;;;1.93;1.67;;;11.30;99.90;;;;;;5034679;28;20492;-63
2021/05/26 05:32:30;;;;;;;3.00;1.27;;;11.20;99.90;;;;;;5034423;28;20559;-63
2021/05/26 05:34:56;;;;;;;7.17;1.77;;;11.10;99.90;;;;;;5034593;28;20510;-64
2021/05/26 05:37:23;;;;;;;4.33;1.60;;;11.10;99.90;;;;;;5034731;28;20479;-63
2021/05/26 05:39:49;;;;;;;2.00;1.20;;;11.00;99.90;;;;;;5034517;28;20513;-63
2021/05/26 05:42:15;;;;;;;1.97;1.30;;;11.00;99.90;;;;;;5034450;28;20479;-63
2021/05/26 05:44:42;;;;;;;3.90;1.67;;;11.00;99.90;;;;;;5035045;28;20436;-62
2021/05/26 05:47:09;;;;;;;3.27;1.90;;;11.00;99.90;;;;;;5035807;28;20448;-63
2021/05/26 05:49:35;;;;;;;3.27;2.00;;;10.90;99.90;;;;;;5035564;28;20915;-63
2021/05/26 05:52:01;;;;;;;1.50;1.40;;;10.90;99.90;;;;;;5035878;28;20479;-64
2021/05/26 05:54:27;;;;;;;3.03;1.73;;;10.90;99.90;;;;;;5037598;28;20456;-63
2021/05/26 05:56:54;;;;;;;5.43;1.50;;;10.80;99.90;;;;;;5035751;28;20482;-63
2021/05/26 05:59:20;;;;;;;2.70;1.53;;;10.80;99.90;;;;;;5034451;28;20436;-63
2021/05/26 06:01:47;;;;;;;2.80;1.40;;;10.80;99.90;;;;;;5034459;28;20483;-64
2021/05/26 06:04:13;;;;;;;2.93;1.87;;;10.80;99.90;;;;;;5034560;28;20806;-64
2021/05/26 06:06:40;;;;;;;1.60;1.50;;;10.70;99.90;;;;;;5037396;28;20547;-63
2021/05/26 06:09:06;;;;;;;7.10;1.80;;;10.70;99.90;;;;;;5035037;28;20448;-63
2021/05/26 06:11:33;;;;;;;1.20;1.17;;;10.80;99.90;;;;;;5034357;28;20468;-63
2021/05/26 06:14:03;;;;;;;1.60;1.30;;;10.70;99.90;;;;;;5034436;28;20452;-62
2021/05/26 06:16:32;;;;;;;1.47;1.40;;;10.70;99.90;;;;;;5034301;28;20440;-64
2021/05/26 06:18:59;;;;;;;3.20;1.80;;;10.70;99.90;;;;;;5034921;28;20470;-63
2021/05/26 06:21:25;;;;;;;2.23;1.40;;;10.70;99.90;;;;;;5038120;28;20533;-64
2021/05/26 06:23:51;;;;;;;1.77;1.40;;;10.70;99.90;;;;;;5038316;28;20554;-62
2021/05/26 06:26:18;;;;;;;3.80;1.50;;;10.70;99.90;;;;;;5038139;28;20539;-63
2021/05/26 06:28:44;;;;;;;2.40;1.67;;;10.70;99.90;;;;;;5039147;28;20767;-59
2021/05/26 06:31:10;;;;;;;2.70;1.80;;;10.80;99.90;;;;;;5038270;28;20471;-62
2021/05/26 06:33:36;;;;;;;3.90;2.20;;;10.80;99.90;;;;;;5038759;28;20825;-61
2021/05/26 06:36:04;;;;;;;4.30;1.70;;;10.90;99.90;;;;;;5038586;28;20458;-62
2021/05/26 06:38:30;;;;;;;2.87;1.47;;;10.80;99.90;;;;;;5038087;28;20478;-61
2021/05/26 06:40:57;;;;;;;4.57;2.13;;;10.90;99.90;;;;;;5037820;28;20478;-62
2021/05/26 06:43:23;;;;;;;2.50;1.73;;;11.00;99.90;;;;;;5038178;28;20543;-62
2021/05/26 06:45:49;;;;;;;4.80;1.73;;;11.00;99.90;;;;;;5038521;28;20455;-63
2021/05/26 06:48:15;;;;;;;2.33;1.73;;;11.10;99.90;;;;;;5038114;28;20447;-59
2021/05/26 06:50:42;;;;;;;2.80;1.90;;;11.10;99.90;;;;;;5038364;28;20479;-60
2021/05/26 06:53:09;;;;;;;2.77;1.50;;;11.30;99.90;;;;;;5037605;28;20451;-60
2021/05/26 06:55:35;;;;;;;1.60;1.43;;;11.50;99.90;;;;;;5037161;28;20451;-59
2021/05/26 06:58:01;;;;;;;1.87;1.77;;;11.50;99.90;;;;;;5037100;28;20990;-58
2021/05/26 07:00:29;;;;;;;7.23;2.40;;;11.30;99.90;;;;;;5036838;28;20455;-60
2021/05/26 07:02:55;;;;;;;5.20;2.23;;;11.30;99.90;;;;;;5036971;28;20903;-60
2021/05/26 07:05:22;;;;;;;3.90;2.77;;;11.30;99.90;;;;;;5036889;28;20973;-59
2021/05/26 07:07:48;;;;;;;4.70;2.27;;;11.40;99.90;;;;;;5037626;28;20448;-59
2021/05/26 07:10:16;;;;;;;3.93;2.10;;;11.50;99.90;;;;;;5037220;28;20452;-59
2021/05/26 07:12:42;;;;;;;2.70;2.03;;;11.50;99.90;;;;;;5037229;28;20452;-59
2021/05/26 07:15:10;;;;;;;2.53;2.33;;;11.40;99.90;;;;;;5037336;28;20463;-60
2021/05/26 07:17:36;;;;;;;3.43;2.57;;;11.40;99.90;;;;;;5037580;28;20475;-60
2021/05/26 07:20:03;;;;;;;2.30;2.03;;;11.40;99.90;;;;;;5037858;28;20456;-60
2021/05/26 07:22:29;;;;;;;3.93;2.40;;;11.40;99.90;;;;;;5037323;28;20476;-59
2021/05/26 07:24:55;;;;;;;3.50;2.30;;;11.50;99.90;;;;;;5037046;28;20535;-61
2021/05/26 07:27:23;;;;;;;4.40;2.43;;;11.60;99.90;;;;;;5037611;28;20459;-62
2021/05/26 07:29:49;;;;;;;2.57;1.83;;;11.70;99.90;;;;;;5036727;28;20452;-64
2021/05/26 07:32:16;;;;;;;6.50;2.30;;;11.70;99.90;;;;;;5036968;28;20480;-62
2021/05/26 07:34:42;;;;;;;5.07;1.63;;;11.80;99.90;;;;;;5036717;28;20452;-64
2021/05/26 07:37:08;;;;;;;3.13;1.80;;;11.80;99.90;;;;;;5036811;28;20455;-64
2021/05/26 07:39:35;;;;;;;4.27;2.37;;;11.80;99.90;;;;;;5040611;28;20456;-63
2021/05/26 07:42:02;;;;;;;4.20;2.10;;;11.80;99.90;;;;;;5041981;28;20489;-64
2021/05/26 07:44:29;;;;;;;6.23;1.80;;;11.80;99.90;;;;;;5036806;28;20456;-63
2021/05/26 07:46:55;;;;;;;2.40;1.90;;;11.80;99.90;;;;;;5037168;28;20455;-65
2021/05/26 07:49:21;;;;;;;3.10;2.10;;;11.80;99.90;;;;;;5036829;28;20452;-62
2021/05/26 07:51:51;;;;;;;2.93;1.87;;;11.90;99.90;;;;;;5036518;28;20480;-64
2021/05/26 07:54:17;;;;;;;2.97;1.90;;;11.90;99.90;;;;;;5037079;28;20568;-64
2021/05/26 07:56:44;;;;;;;2.33;1.63;;;11.90;99.90;;;;;;5036949;28;20478;-62
2021/05/26 07:59:10;;;;;;;3.23;1.47;;;11.80;99.90;;;;;;5036323;28;20476;-63
2021/05/26 08:01:37;;;;;;;2.23;1.90;;;11.90;99.90;;;;;;5036352;28;20993;-63
2021/05/26 08:04:04;;;;;;;8.80;2.30;;;11.90;99.90;;;;;;5037512;28;20452;-60
2021/05/26 08:06:30;;;;;;;16.37;4.13;;;11.80;99.90;;;;;;5036439;28;20460;-60
2021/05/26 08:08:57;;;;;;;5.37;2.10;;;11.90;99.90;;;;;;5036308;28;20475;-61
2021/05/26 08:11:23;;;;;;;3.87;2.47;;;11.90;99.90;;;;;;5036086;28;20472;-61
2021/05/26 08:13:50;;;;;;;5.67;2.63;;;11.90;99.90;;;;;;5036016;28;20539;-61
2021/05/26 08:16:16;;;;;;;4.43;2.50;;;11.90;99.90;;;;;;5035710;28;20456;-63
2021/05/26 08:18:43;;;;;;;6.27;2.20;;;11.90;99.90;;;;;;5035521;28;20507;-63
2021/05/26 08:21:11;;;;;;;5.03;2.40;;;12.00;99.90;;;;;;5036053;28;20472;-63
2021/05/26 08:23:37;;;;;;;2.97;2.50;;;12.00;99.90;;;;;;5035898;28;20455;-63
2021/05/26 08:26:04;;;;;;;4.97;2.07;;;12.00;99.90;;;;;;5036603;28;20456;-62
2021/05/26 08:28:30;;;;;;;6.10;2.40;;;12.20;99.90;;;;;;5035514;28;20452;-63
2021/05/26 08:30:56;;;;;;;5.00;2.30;;;12.30;99.90;;;;;;5036389;28;20476;-63
2021/05/26 08:33:22;;;;;;;2.60;1.40;;;12.50;99.90;;;;;;5035337;28;20456;-63
2021/05/26 08:35:49;;;;;;;3.30;1.60;;;12.40;99.90;;;;;;5035423;28;20491;-63
2021/05/26 08:38:16;;;;;;;3.30;1.57;;;12.30;99.90;;;;;;5035300;28;20814;-63
2021/05/26 08:40:42;;;;;;;2.53;2.00;;;12.10;99.90;;;;;;5035754;28;20479;-64
2021/05/26 08:43:08;;;;;;;6.43;2.43;;;11.90;99.90;;;;;;5034602;28;20527;-63
2021/05/26 08:45:35;;;;;;;3.30;2.13;;;11.90;99.90;;;;;;5035227;28;20452;-63
2021/05/26 08:48:05;;;;;;;5.13;2.00;;;11.80;99.90;;;;;;5035096;28;20452;-64
2021/05/26 08:50:33;;;;;;;5.13;1.83;;;11.80;99.90;;;;;;5035428;28;20447;-62
2021/05/26 08:53:00;;;;;;;2.03;1.37;;;11.80;99.90;;;;;;5035844;28;20448;-63
2021/05/26 08:55:30;;;;;;;2.60;1.83;;;11.80;99.90;;;;;;5036690;28;20452;-63
2021/05/26 08:57:59;;;;;;;3.43;1.60;;;11.80;99.90;;;;;;5035383;28;20971;-62
2021/05/26 09:00:25;;;;;;;4.50;1.80;;;11.90;99.90;;;;;;5035229;28;20456;-63
2021/05/26 09:02:51;;;;;;;2.97;1.37;;;12.00;99.90;;;;;;5035405;28;20440;-63
2021/05/26 09:05:22;;;;;;;1.97;1.33;;;12.00;99.90;;;;;;5034809;28;20448;-63
2021/05/26 09:07:48;;;;;;;3.10;1.50;;;12.00;99.90;;;;;;5035550;28;20443;-63
2021/05/26 09:10:15;;;;;;;4.40;2.03;;;12.10;99.90;;;;;;5035192;28;20448;-63
2021/05/26 09:12:42;;;;;;;3.00;1.60;;;12.10;99.90;;;;;;5039983;28;20526;-64
2021/05/26 09:15:13;;;;;;;2.27;2.10;;;12.10;99.90;;;;;;5035821;28;20463;-63
2021/05/26 09:17:39;;;;;;;4.53;1.50;;;12.20;99.90;;;;;;5035241;28;20464;-64
2021/05/26 09:20:18;;;;;;;7.23;2.23;;;12.20;99.90;;;;;;5034559;28;20482;-64
2021/05/26 09:23:07;;;;;;;5.80;1.70;;;12.20;99.90;;;;;;5035307;28;20506;-63
2021/05/26 09:25:36;;;;;;;2.43;1.80;;;12.10;99.90;;;;;;5034523;28;20895;-63
2021/05/26 09:28:17;;;;;;;2.37;1.77;;;12.00;99.90;;;;;;5034973;28;20440;-63
2021/05/26 09:30:45;;;;;;;3.10;1.40;;;12.00;99.90;;;;;;5035244;28;20590;-63
2021/05/26 09:33:32;;;;;;;2.93;1.77;;;12.00;99.90;;;;;;5035314;28;20459;-63
2021/05/26 09:36:13;;;;;;;4.07;1.70;;;12.00;99.90;;;;;;5036236;28;20530;-63
2021/05/26 09:38:40;;;;;;;3.70;1.47;;;12.10;99.90;;;;;;5035915;28;20471;-64
2021/05/26 09:41:12;;;;;;;1.57;1.47;;;12.20;99.90;;;;;;5035594;28;20598;-64
2021/05/26 09:43:44;;;;;;;3.63;1.60;;;12.30;99.90;;;;;;5035412;28;20460;-64
2021/05/26 09:46:32;;;;;;;3.40;1.70;;;12.30;99.90;;;;;;5035254;28;20464;-64
2021/05/26 09:49:06;;;;;;;2.60;1.43;;;12.40;99.90;;;;;;5034944;28;20432;-67
2021/05/26 09:51:35;;;;;;;2.50;1.77;;;12.20;99.90;;;;;;5034936;28;20838;-63
2021/05/26 09:54:18;;;;;;;3.30;1.50;;;12.30;99.90;;;;;;5034553;28;20490;-63
2021/05/26 09:56:47;;;;;;;1.70;1.60;;;12.30;99.90;;;;;;5035067;28;20431;-64
2021/05/26 09:59:13;;;;;;;4.40;1.60;;;12.40;99.90;;;;;;5034402;28;20993;-63
2021/05/26 10:01:41;;;;;;;3.27;1.50;;;12.40;99.90;;;;;;5034809;28;20480;-64
2021/05/26 10:04:08;;;;;;;3.67;1.47;;;12.40;99.90;;;;;;5034526;28;20452;-64
2021/05/26 10:06:35;;;;;;;1.50;1.40;;;12.60;99.90;;;;;;5034492;28;20483;-64
2021/05/26 10:09:02;;;;;;;2.83;1.77;;;12.60;99.90;;;;;;5034505;28;20506;-63
2021/05/26 10:11:32;;;;;;;3.93;1.80;;;12.50;99.90;;;;;;5033763;28;20476;-63
2021/05/26 10:14:04;;;;;;;2.20;1.60;;;12.50;99.90;;;;;;5033771;28;20444;-63
2021/05/26 10:16:32;;;;;;;1.87;1.50;;;12.50;99.90;;;;;;5034315;28;20468;-63
2021/05/26 10:19:02;;;;;;;1.83;1.67;;;12.60;99.90;;;;;;5033862;28;20992;-63
2021/05/26 10:21:29;;;;;;;4.37;1.70;;;12.70;99.90;;;;;;5034339;28;20479;-64
2021/05/26 10:23:56;;;;;;;2.83;1.30;;;12.70;99.90;;;;;;5034147;28;20939;-64
2021/05/26 10:26:55;;;;;;;2.63;1.53;;;12.70;99.90;;;;;;5035074;28;20456;-63
2021/05/26 10:29:36;;;;;;;1.50;1.40;;;12.80;99.90;;;;;;5034859;28;20806;-63
2021/05/26 10:32:04;;;;;;;2.73;2.13;;;12.90;99.90;;;;;;5034015;28;21009;-63
2021/05/26 10:35:05;;;;;;;3.13;1.30;;;13.00;99.90;;;;;;5034543;28;20454;-64
2021/05/26 10:37:33;;;;;;;1.60;1.17;;;13.00;99.90;;;;;;5034526;28;20440;-64
2021/05/26 10:40:00;;;;;;;3.33;1.60;;;12.70;99.90;;;;;;5034067;28;21018;-63
2021/05/26 10:42:27;;;;;;;1.27;1.10;;;12.80;99.90;;;;;;5035149;28;20478;-64
2021/05/26 10:44:59;;;;;;;1.53;1.43;;;13.00;99.90;;;;;;5045479;28;20460;-63
2021/05/26 10:47:46;;;;;;;2.57;1.17;;;13.00;99.90;;;;;;5033890;28;20478;-63
2021/05/26 10:50:17;;;;;;;1.00;0.90;;;13.00;99.90;;;;;;5033731;28;20956;-64
2021/05/26 10:53:11;;;;;;;1.27;1.17;;;13.20;99.90;;;;;;5034254;28;20447;-63
2021/05/26 10:55:39;;;;;;;0.83;0.83;;;13.50;99.90;;;;;;5034232;28;20448;-63
2021/05/26 10:58:17;;;;;;;1.53;1.07;;;13.80;99.90;;;;;;5034073;28;20472;-63
2021/05/26 11:00:45;;;;;;;0.90;0.90;;;14.00;99.90;;;;;;5033454;28;20484;-65
2021/05/26 11:03:31;;;;;;;0.87;0.87;;;14.10;99.90;;;;;;5034738;28;20452;-64
2021/05/26 11:05:59;;;;;;;0.60;0.60;;;14.30;99.90;;;;;;5035701;28;20443;-63
2021/05/26 11:08:35;;;;;;;1.73;1.20;;;14.20;99.90;;;;;;5037443;28;20456;-65
2021/05/26 11:11:38;;;;;;;0.87;0.87;;;14.00;99.90;;;;;;5037882;28;20475;-63
2021/05/26 11:14:23;;;;;;;1.77;1.17;;;14.10;99.90;;;;;;5037762;28;20538;-64
2021/05/26 11:17:21;;;;;;;1.13;1.13;;;13.90;99.90;;;;;;5038019;28;20436;-63
2021/05/26 11:19:48;;;;;;;0.90;0.90;;;13.90;99.90;;;;;;5037742;28;20778;-64
2021/05/26 11:22:15;;;;;;;1.83;1.10;;;13.90;99.90;;;;;;5037855;28;20974;-64
2021/05/26 11:24:44;;;;;;;0.87;0.87;;;13.80;99.90;;;;;;5037359;28;20483;-64
2021/05/26 11:27:16;;;;;;;1.07;0.70;;;13.70;99.90;;;;;;5037449;28;20452;-61
2021/05/26 11:29:42;;;;;;;1.50;1.00;;;13.90;99.90;;;;;;5036765;28;20549;-62
2021/05/26 11:32:10;;;;;;;1.43;0.70;;;13.90;99.90;;;;;;5036568;28;20986;-61
2021/05/26 11:34:39;;;;;;;0.77;0.77;;;13.80;99.90;;;;;;5037992;28;20452;-61
2021/05/26 11:37:06;;;;;;;1.90;0.80;;;13.70;99.90;;;;;;5037857;28;20466;-61
2021/05/26 11:39:34;;;;;;;1.20;0.80;;;13.60;99.90;;;;;;5040005;28;20464;-62
2021/05/26 11:42:11;;;;;;;0.70;0.70;;;13.60;99.90;;;;;;5038869;28;20476;-62
2021/05/26 11:44:38;;;;;;;1.27;1.17;;;13.50;99.90;;;;;;5036793;28;20456;-61
2021/05/26 11:47:05;;;;;;;1.17;0.77;;;13.60;99.90;;;;;;5036913;28;20452;-62
2021/05/26 11:49:33;;;;;;;0.87;0.70;;;13.50;99.90;;;;;;5037004;28;20502;-62
2021/05/26 11:52:04;;;;;;;0.90;0.90;;;13.60;99.90;;;;;;5036432;28;20478;-61
2021/05/26 11:54:30;;;;;;;1.90;0.87;;;13.60;99.90;;;;;;5036924;28;20452;-64
2021/05/26 11:57:03;;;;;;;0.73;0.73;;;13.70;99.90;;;;;;5036631;28;20448;-64
2021/05/26 11:59:29;;;;;;;0.93;0.93;;;13.70;99.90;;;;;;5036488;28;20464;-64
2021/05/26 12:01:55;;;;;;;4.50;1.07;;;13.80;99.90;;;;;;5035984;28;20480;-65
2021/05/26 12:04:21;;;;;;;0.70;0.70;;;13.90;99.90;;;;;;5036699;28;20456;-64
2021/05/26 12:06:48;;;;;;;1.07;0.97;;;14.10;99.90;;;;;;5036371;28;20989;-64
2021/05/26 12:09:29;;;;;;;1.77;1.10;;;14.10;99.90;;;;;;5036439;28;20448;-63
2021/05/26 12:11:56;;;;;;;0.90;0.90;;;14.30;99.90;;;;;;5036053;28;20471;-65
2021/05/26 12:14:27;;;;;;;1.03;0.70;;;14.20;99.90;;;;;;5036754;28;20950;-64
2021/05/26 12:16:54;;;;;;;1.67;1.13;;;14.20;99.90;;;;;;5042380;28;20452;-63
2021/05/26 12:19:27;;;;;;;6.23;0.90;;;14.20;99.90;;;;;;5036609;28;20464;-65
2021/05/26 12:22:13;;;;;;;1.00;0.87;;;14.30;99.90;;;;;;5036108;28;20476;-64
2021/05/26 12:24:58;;;;;;;2.30;1.83;;;14.50;99.90;;;;;;5035730;28;20474;-63
2021/05/26 12:27:46;;;;;;;1.07;0.97;;;14.90;99.90;;;;;;5036370;28;20485;-66
2021/05/26 12:30:14;;;;;;;0.80;0.80;;;14.90;99.90;;;;;;5032358;28;20463;-64
2021/05/26 12:32:41;;;;;;;0.63;0.63;;;15.30;99.90;;;;;;5035535;28;20471;-64
2021/05/26 12:35:13;;;;;;;2.00;1.13;;;15.50;99.90;;;;;;5035537;28;20494;-64
2021/05/26 12:37:40;;;;;;;1.33;0.87;;;15.60;99.90;;;;;;5035334;28;20436;-65
2021/05/26 12:40:08;;;;;;;1.43;0.87;;;15.70;99.90;;;;;;5035599;28;20811;-64
2021/05/26 12:42:36;;;;;;;0.80;0.67;;;15.70;99.90;;;;;;5035422;28;20563;-64
2021/05/26 12:45:19;;;;;;;1.27;1.17;;;15.90;99.90;;;;;;5035055;28;20896;-64
2021/05/26 12:47:46;;;;;;;3.60;1.13;;;15.90;99.90;;;;;;5034908;28;20534;-65
2021/05/26 12:50:13;;;;;;;2.10;0.70;;;15.90;99.90;;;;;;5035194;28;20452;-65
2021/05/26 12:52:39;;;;;;;2.53;0.73;;;15.80;99.90;;;;;;5035093;28;20476;-65
2021/05/26 12:55:08;;;;;;;0.80;0.80;;;15.70;99.90;;;;;;5035172;28;20582;-65
2021/05/26 12:57:36;;;;;;;0.93;0.93;;;15.70;99.90;;;;;;5034894;28;20445;-64
2021/05/26 13:00:04;;;;;;;0.90;0.90;;;15.80;99.90;;;;;;5035080;28;20943;-65
2021/05/26 13:02:32;;;;;;;0.67;0.67;;;15.70;99.90;;;;;;5034511;28;20527;-65
2021/05/26 13:04:59;;;;;;;1.80;1.00;;;15.70;99.90;;;;;;5035549;28;20466;-65
2021/05/26 13:07:27;;;;;;;1.53;1.10;;;15.90;99.90;;;;;;5035406;28;20459;-63
2021/05/26 13:09:54;;;;;;;0.83;0.83;;;16.10;99.90;;;;;;5035822;28;20494;-64
2021/05/26 13:12:30;;;;;;;0.80;0.80;;;15.90;99.90;;;;;;5035016;28;20472;-64
2021/05/26 13:15:21;;;;;;;1.17;0.90;;;15.80;99.90;;;;;;5035244;28;20806;-64
2021/05/26 13:17:47;;;;;;;0.80;0.80;;;15.90;99.90;;;;;;5034732;28;20436;-65
2021/05/26 13:20:23;;;;;;;1.63;1.00;;;16.00;99.90;;;;;;5034753;28;20898;-65
2021/05/26 13:22:49;;;;;;;3.00;1.53;;;16.00;99.90;;;;;;5035016;28;20497;-65
2021/05/26 13:25:16;;;;;;;1.53;1.23;;;15.90;99.90;;;;;;5034843;28;20506;-65
2021/05/26 13:27:44;;;;;;;0.93;0.80;;;15.70;99.90;;;;;;5034176;28;20518;-64
2021/05/26 13:30:12;;;;;;;1.53;0.90;;;15.60;99.90;;;;;;5035119;28;20459;-65
2021/05/26 13:32:38;;;;;;;0.80;0.80;;;15.80;99.90;;;;;;5034975;28;20479;-64
2021/05/26 13:35:05;;;;;;;0.93;0.90;;;15.70;99.90;;;;;;5034897;28;20568;-65
2021/05/26 13:37:31;;;;;;;1.63;1.20;;;15.70;99.90;;;;;;5037798;28;20440;-64
2021/05/26 13:39:57;;;;;;;2.03;1.27;;;15.90;99.90;;;;;;5035874;28;20506;-66
2021/05/26 13:42:24;;;;;;;1.90;1.13;;;15.80;99.90;;;;;;5038364;28;20463;-65
2021/05/26 13:44:51;;;;;;;1.07;1.07;;;15.80;99.90;;;;;;5043098;28;20517;-65
2021/05/26 13:47:17;;;;;;;1.07;0.97;;;15.90;99.90;;;;;;5043929;28;20942;-65
2021/05/26 13:49:43;;;;;;;2.20;1.17;;;15.80;99.90;;;;;;5047308;28;20443;-65
2021/05/26 13:52:09;;;;;;;2.40;0.80;;;16.00;99.90;;;;;;5046012;28;20476;-64
2021/05/26 13:54:36;;;;;;;1.43;0.80;;;16.20;99.90;;;;;;5038904;28;20947;-66
2021/05/26 13:57:02;;;;;;;3.60;1.40;;;16.30;99.90;;;;;;5035514;28;20467;-65
2021/05/26 13:59:28;;;;;;;1.50;1.20;;;16.00;99.90;;;;;;5046667;28;20476;-65
2021/05/26 14:01:55;;;;;;;1.60;1.17;;;16.10;99.90;;;;;;5038827;28;20519;-64
2021/05/26 14:04:21;;;;;;;6.30;1.30;;;16.20;99.90;;;;;;5037150;28;20789;-64
2021/05/26 14:06:49;;;;;;;1.10;1.00;;;16.50;99.90;;;;;;5038306;28;20452;-64
2021/05/26 14:09:15;;;;;;;2.73;1.30;;;16.60;99.90;;;;;;5034807;28;20456;-65
2021/05/26 14:11:41;;;;;;;4.10;1.17;;;16.40;99.90;;;;;;5034239;28;20479;-65
2021/05/26 14:14:07;;;;;;;1.43;1.27;;;16.50;99.90;;;;;;5033939;28;20459;-64
2021/05/26 14:16:33;;;;;;;2.30;1.40;;;16.40;99.90;;;;;;5034078;28;20824;-65
2021/05/26 14:19:00;;;;;;;1.93;0.90;;;16.30;99.90;;;;;;5034426;28;20598;-65
2021/05/26 14:21:27;;;;;;;2.20;0.87;;;16.20;99.90;;;;;;5034314;28;20920;-65
2021/05/26 14:23:54;;;;;;;0.87;0.87;;;16.00;99.90;;;;;;5034973;28;20958;-64
2021/05/26 14:26:20;;;;;;;2.40;0.87;;;16.10;99.90;;;;;;5035070;28;20455;-65
2021/05/26 14:28:47;;;;;;;0.80;0.80;;;16.10;99.90;;;;;;5035136;28;20824;-65
2021/05/26 14:31:15;;;;;;;0.70;0.70;;;16.00;99.90;;;;;;5034927;28;20486;-65
2021/05/26 14:33:41;;;;;;;1.30;1.03;;;15.80;99.90;;;;;;5033815;28;20471;-64
2021/05/26 14:36:10;;;;;;;1.07;1.07;;;15.70;99.90;;;;;;5033989;28;20517;-65
2021/05/26 14:38:43;;;;;;;1.17;1.10;;;15.70;99.90;;;;;;5033989;28;20483;-65
2021/05/26 14:41:11;;;;;;;2.00;0.90;;;15.60;99.90;;;;;;5036984;28;20569;-64
2021/05/26 14:43:37;;;;;;;2.60;1.17;;;15.20;99.90;;;;;;5039013;28;20463;-64
2021/05/26 14:46:04;;;;;;;0.73;0.73;;;14.90;99.90;;;;;;5038671;28;20451;-64
2021/05/26 14:48:30;;;;;;;1.10;1.10;;;14.70;99.90;;;;;;5038203;28;20432;-65
2021/05/26 14:50:57;;;;;;;1.80;1.10;;;14.70;99.90;;;;;;5038595;28;20478;-64
2021/05/26 14:53:24;;;;;;;1.07;0.60;;;14.60;99.90;;;;;;5039269;28;20481;-65
2021/05/26 14:55:51;;;;;;;1.13;0.97;;;14.60;99.90;;;;;;5039698;28;20895;-64
2021/05/26 14:58:17;;;;;;;1.07;0.90;;;14.70;99.90;;;;;;5038591;28;20479;-64
2021/05/26 15:00:43;;;;;;;2.53;1.93;;;14.80;99.90;;;;;;5037434;28;21065;-64
2021/05/26 15:03:09;;;;;;;1.10;1.00;;;14.80;99.90;;;;;;5037465;28;20918;-63
2021/05/26 15:05:37;;;;;;;2.10;1.27;;;15.00;99.90;;;;;;5038453;28;20470;-65
2021/05/26 15:08:03;;;;;;;0.80;0.80;;;15.00;99.90;;;;;;5037316;28;20459;-64
2021/05/26 15:10:32;;;;;;;0.90;0.90;;;15.10;99.90;;;;;;5037537;28;20452;-64
2021/05/26 15:12:58;;;;;;;4.03;1.30;;;15.10;99.90;;;;;;5036895;28;20498;-64
2021/05/26 15:15:24;;;;;;;1.10;1.00;;;15.20;99.90;;;;;;5036758;28;20463;-65
2021/05/26 15:17:51;;;;;;;1.13;1.07;;;15.30;99.90;;;;;;5037777;28;20506;-63
2021/05/26 15:20:17;;;;;;;1.03;0.83;;;15.10;99.90;;;;;;5037479;28;20440;-64
2021/05/26 15:22:43;;;;;;;1.27;0.87;;;15.20;99.90;;;;;;5039218;28;20432;-64
2021/05/26 15:25:10;;;;;;;1.00;1.00;;;15.40;99.90;;;;;;5044341;28;20456;-63
2021/05/26 15:27:38;;;;;;;1.73;1.17;;;15.30;99.90;;;;;;5036880;28;20514;-64
2021/05/26 15:30:08;;;;;;;0.70;0.70;;;15.40;99.90;;;;;;5037151;28;20448;-64
2021/05/26 15:32:35;;;;;;;0.90;0.90;;;15.20;99.90;;;;;;5036931;28;20523;-64
2021/05/26 15:35:01;;;;;;;0.80;0.80;;;15.20;99.90;;;;;;5037414;28;20456;-63
2021/05/26 15:37:27;;;;;;;0.90;0.90;;;15.30;99.90;;;;;;5036884;28;20471;-63
2021/05/26 15:39:58;;;;;;;3.30;0.87;;;15.30;99.90;;;;;;5036370;28;20482;-64
2021/05/26 15:42:24;;;;;;;2.00;1.20;;;15.30;99.90;;;;;;5036314;28;20815;-64
2021/05/26 15:44:51;;;;;;;2.10;1.10;;;15.30;99.90;;;;;;5037082;28;20448;-64
2021/05/26 15:47:18;;;;;;;3.13;1.30;;;15.50;99.90;;;;;;5036793;28;20436;-64
2021/05/26 15:49:44;;;;;;;0.90;0.90;;;15.60;99.90;;;;;;5036376;28;20538;-64
2021/05/26 15:52:10;;;;;;;1.43;0.90;;;15.50;99.90;;;;;;5036213;28;20472;-65
2021/05/26 15:54:36;;;;;;;0.80;0.80;;;15.50;99.90;;;;;;5036682;28;20456;-64
2021/05/26 15:57:03;;;;;;;4.53;1.10;;;15.40;99.90;;;;;;5037924;28;20452;-64
2021/05/26 15:59:30;;;;;;;0.90;0.90;;;15.30;99.90;;;;;;5038467;28;20467;-64
2021/05/26 16:01:57;;;;;;;0.67;0.67;;;15.20;99.90;;;;;;5037050;28;20503;-63
2021/05/26 16:04:23;;;;;;;1.70;0.70;;;15.30;99.90;;;;;;5037484;28;20514;-65
2021/05/26 16:06:50;;;;;;;1.80;1.70;;;15.20;99.90;;;;;;5036829;28;20548;-65
2021/05/26 16:09:16;;;;;;;1.23;1.23;;;15.40;99.90;;;;;;5036690;28;20914;-64
2021/05/26 16:11:42;;;;;;;0.70;0.70;;;15.30;99.90;;;;;;5037684;28;20502;-64
2021/05/26 16:14:09;;;;;;;1.10;1.10;;;15.30;99.90;;;;;;5036528;28;20436;-65
2021/05/26 16:16:36;;;;;;;0.80;0.80;;;15.40;99.90;;;;;;5036042;28;20849;-64
2021/05/26 16:19:03;;;;;;;0.93;0.80;;;15.40;99.90;;;;;;5036073;28;20472;-64
2021/05/26 16:21:30;;;;;;;1.00;1.00;;;15.50;99.90;;;;;;5036215;28;20479;-65
2021/05/26 16:23:56;;;;;;;1.20;1.03;;;15.60;99.90;;;;;;5035814;28;20451;-63
2021/05/26 16:26:22;;;;;;;0.77;0.77;;;15.60;99.90;;;;;;5035599;28;20862;-65
2021/05/26 16:28:49;;;;;;;1.00;0.90;;;15.50;99.90;;;;;;5035022;28;20935;-64
2021/05/26 16:31:17;;;;;;;0.83;0.83;;;15.50;99.90;;;;;;5035332;28;20832;-64
2021/05/26 16:33:44;;;;;;;1.40;1.00;;;15.50;99.90;;;;;;5035692;28;20452;-63
2021/05/26 16:36:13;;;;;;;0.90;0.90;;;15.50;99.90;;;;;;5035336;28;20455;-64
2021/05/26 16:38:39;;;;;;;0.70;0.70;;;15.40;99.90;;;;;;5036527;28;20815;-63
2021/05/26 16:41:06;;;;;;;1.17;0.87;;;15.40;99.90;;;;;;5035791;28;20476;-64
2021/05/26 16:43:32;;;;;;;0.83;0.67;;;15.40;99.90;;;;;;5036421;28;20830;-66
2021/05/26 16:45:59;;;;;;;0.60;0.60;;;15.30;99.90;;;;;;5035878;28;20570;-65
2021/05/26 16:48:25;;;;;;;2.50;0.80;;;15.10;99.90;;;;;;5035358;28;20448;-65
2021/05/26 16:50:51;;;;;;;1.57;0.93;;;15.00;99.90;;;;;;5036142;28;20479;-63
2021/05/26 16:53:19;;;;;;;0.60;0.60;;;14.90;99.90;;;;;;5037420;28;20452;-64
2021/05/26 16:55:45;;;;;;;0.57;0.57;;;14.80;99.90;;;;;;5042053;28;20452;-65